WXM80 ListenWXM80 Stop

You find our weather info also at:

UK Metoffice

WeatherCloud

Weather Underground

Northeastern Weather Network

AWEKAS

Citizen Weather Observer Program (CWOP)

HAMweather, WeatherForYou, PWS Weather


Weather Underground History page Text

Daily Summary for January 8, 2016 Units:  English    Metric   Both
« Previous Day
Next Day »
Daily Weekly Monthly Yearly Custom
  High: Low: Average:
Temperature: 44.4 °F 32.0 °F 39.6 °F
Dew Point: 39.6 °F 25.7 °F 33.7 °F
Humidity: 85 % 66 % 79 %
Wind Speed: 9.9 mph 0.4 mph 5.7 mph
Wind Gust: 14.0 mph - -
Wind:- - ENE
Pressure: 30.23 in 30.14 in -
Precipitation: 0.00 in    
Historical Graphs
 
 
Tabular Data for January 8, 2016
Time Temperature Dew Point Pressure Wind Wind Speed Wind Gust Humidity Rainfall Rate (Hourly)
00:00 32.0 °F 28.0 °F 30.17 in ENE 4.8 mph 8.1 mph 85 % 0.00 in
00:05 33.5 °F 28.0 °F 30.17 in NE 3.3 mph 4.6 mph 80 % 0.00 in
00:10 34.1 °F 28.6 °F 30.17 in ENE 1.1 mph 3.5 mph 80 % 0.00 in
00:15 34.4 °F 28.9 °F 30.18 in NE 2.0 mph 4.6 mph 80 % 0.00 in
00:21 34.6 °F 28.8 °F 30.18 in ENE 3.8 mph 6.9 mph 79 % 0.00 in
00:26 35.0 °F 28.5 °F 30.17 in NE 2.2 mph 3.5 mph 77 % 0.00 in
00:31 35.0 °F 28.2 °F 30.17 in East 1.5 mph 7.0 mph 76 % 0.00 in
00:36 35.2 °F 27.7 °F 30.17 in NNE 4.1 mph 6.9 mph 74 % 0.00 in
00:41 35.4 °F 27.6 °F 30.17 in ENE 3.1 mph 5.8 mph 73 % 0.00 in
00:46 35.5 °F 27.4 °F 30.17 in ENE 3.4 mph 4.6 mph 72 % 0.00 in
00:51 35.7 °F 27.6 °F 30.17 in ENE 6.5 mph 10.0 mph 72 % 0.00 in
00:56 36.3 °F 27.1 °F 30.17 in ENE 6.0 mph 10.4 mph 69 % 0.00 in
01:01 36.6 °F 27.7 °F 30.17 in ENE 6.7 mph 9.2 mph 70 % 0.00 in
01:06 36.8 °F 27.6 °F 30.17 in East 7.6 mph 8.1 mph 69 % 0.00 in
01:12 37.0 °F 28.1 °F 30.17 in ENE 5.1 mph 9.2 mph 70 % 0.00 in
01:17 37.1 °F 28.2 °F 30.17 in NE 7.2 mph 10.4 mph 70 % 0.00 in
01:22 37.3 °F 28.1 °F 30.16 in ENE 6.8 mph 10.4 mph 69 % 0.00 in
01:27 37.4 °F 28.2 °F 30.16 in ENE 7.7 mph 10.4 mph 69 % 0.00 in
01:32 37.5 °F 28.6 °F 30.16 in ENE 6.4 mph 9.2 mph 70 % 0.00 in
01:37 37.4 °F 28.9 °F 30.16 in East 5.9 mph 10.4 mph 71 % 0.00 in
01:42 37.3 °F 28.8 °F 30.16 in ENE 8.5 mph 11.5 mph 71 % 0.00 in
01:47 37.3 °F 29.1 °F 30.16 in East 8.1 mph 10.4 mph 72 % 0.00 in
01:52 37.3 °F 29.1 °F 30.16 in ENE 6.0 mph 11.5 mph 72 % 0.00 in
01:57 37.2 °F 29.3 °F 30.16 in ENE 8.4 mph 10.4 mph 73 % 0.00 in
02:03 37.2 °F 29.7 °F 30.16 in East 7.4 mph 11.5 mph 74 % 0.00 in
02:08 37.2 °F 29.3 °F 30.16 in NE 7.9 mph 12.0 mph 73 % 0.00 in
02:13 37.1 °F 29.6 °F 30.16 in ENE 7.9 mph 10.4 mph 74 % 0.00 in
02:18 37.1 °F 29.6 °F 30.16 in ENE 8.8 mph 11.5 mph 74 % 0.00 in
02:23 37.1 °F 29.6 °F 30.16 in East 7.0 mph 10.4 mph 74 % 0.00 in
02:28 37.0 °F 29.5 °F 30.16 in ENE 7.3 mph 11.5 mph 74 % 0.00 in
02:33 37.0 °F 29.1 °F 30.16 in ENE 6.9 mph 11.5 mph 73 % 0.00 in
02:38 37.0 °F 29.1 °F 30.17 in ENE 6.6 mph 10.4 mph 73 % 0.00 in
02:43 36.9 °F 28.7 °F 30.17 in ENE 7.3 mph 11.0 mph 72 % 0.00 in
02:48 36.8 °F 28.6 °F 30.17 in ENE 6.4 mph 11.5 mph 72 % 0.00 in
02:59 36.8 °F 28.3 °F 30.17 in ENE 6.4 mph 9.2 mph 71 % 0.00 in
03:04 36.8 °F 27.9 °F 30.17 in ENE 6.3 mph 11.5 mph 70 % 0.00 in
03:09 36.7 °F 27.8 °F 30.17 in ENE 7.7 mph 11.5 mph 70 % 0.00 in
03:14 36.7 °F 27.5 °F 30.17 in ENE 6.4 mph 9.2 mph 69 % 0.00 in
03:19 36.7 °F 27.8 °F 30.17 in ENE 7.1 mph 9.2 mph 70 % 0.00 in
03:24 36.6 °F 27.0 °F 30.17 in NE 7.3 mph 11.5 mph 68 % 0.00 in
03:29 36.6 °F 27.0 °F 30.17 in ENE 8.6 mph 11.5 mph 68 % 0.00 in
03:34 36.5 °F 26.6 °F 30.18 in ENE 6.5 mph 11.5 mph 67 % 0.00 in
03:40 36.3 °F 26.0 °F 30.18 in East 7.8 mph 10.4 mph 66 % 0.00 in
03:45 36.2 °F 25.9 °F 30.18 in NE 6.6 mph 11.0 mph 66 % 0.00 in
03:50 36.1 °F 25.8 °F 30.18 in East 5.6 mph 11.5 mph 66 % 0.00 in
03:55 36.0 °F 25.7 °F 30.19 in NE 6.3 mph 11.5 mph 66 % 0.00 in
04:00 35.9 °F 26.0 °F 30.19 in ENE 6.3 mph 11.5 mph 67 % 0.00 in
04:05 35.7 °F 25.8 °F 30.18 in ENE 5.4 mph 12.0 mph 67 % 0.00 in
04:10 35.6 °F 25.7 °F 30.18 in ENE 5.1 mph 9.2 mph 67 % 0.00 in
04:15 35.5 °F 26.0 °F 30.18 in ENE 7.1 mph 10.4 mph 68 % 0.00 in
04:20 35.4 °F 26.6 °F 30.18 in East 6.0 mph 10.4 mph 70 % 0.00 in
04:25 35.4 °F 26.6 °F 30.18 in NE 5.8 mph 12.7 mph 70 % 0.00 in
04:31 35.4 °F 26.9 °F 30.19 in ENE 6.3 mph 9.2 mph 71 % 0.00 in
04:36 35.3 °F 26.8 °F 30.19 in East 4.5 mph 8.1 mph 71 % 0.00 in
04:41 35.2 °F 26.7 °F 30.19 in NNE 4.7 mph 8.1 mph 71 % 0.00 in
04:46 35.0 °F 26.5 °F 30.19 in ENE 3.7 mph 8.0 mph 71 % 0.00 in
04:51 34.8 °F 27.0 °F 30.19 in NE 3.4 mph 6.9 mph 73 % 0.00 in
04:56 34.7 °F 26.9 °F 30.18 in NE 5.3 mph 10.4 mph 73 % 0.00 in
05:01 34.5 °F 27.4 °F 30.18 in NE 4.3 mph 5.8 mph 75 % 0.00 in
05:06 34.4 °F 27.6 °F 30.18 in NNE 3.2 mph 8.1 mph 76 % 0.00 in
05:11 34.4 °F 27.9 °F 30.18 in ENE 6.9 mph 8.1 mph 77 % 0.00 in
05:16 34.5 °F 28.3 °F 30.18 in NE 6.3 mph 11.5 mph 78 % 0.00 in
05:22 34.6 °F 28.4 °F 30.18 in NE 6.3 mph 10.4 mph 78 % 0.00 in
05:27 34.7 °F 28.9 °F 30.17 in NE 7.4 mph 11.5 mph 79 % 0.00 in
05:32 34.8 °F 29.0 °F 30.18 in ENE 8.7 mph 12.7 mph 79 % 0.00 in
05:37 35.0 °F 29.5 °F 30.18 in NE 8.1 mph 11.5 mph 80 % 0.00 in
05:42 35.2 °F 29.6 °F 30.18 in ENE 5.7 mph 9.2 mph 80 % 0.00 in
05:47 35.4 °F 30.1 °F 30.17 in ENE 8.1 mph 11.5 mph 81 % 0.00 in
05:52 35.5 °F 30.2 °F 30.17 in ENE 7.9 mph 10.0 mph 81 % 0.00 in
05:57 35.7 °F 30.4 °F 30.17 in ENE 8.3 mph 11.5 mph 81 % 0.00 in
06:02 35.7 °F 30.1 °F 30.18 in NE 8.4 mph 10.4 mph 80 % 0.00 in
06:07 35.8 °F 30.5 °F 30.18 in East 8.7 mph 12.7 mph 81 % 0.00 in
06:13 35.8 °F 30.5 °F 30.17 in East 8.7 mph 13.8 mph 81 % 0.00 in
06:18 35.8 °F 30.2 °F 30.17 in ENE 9.3 mph 12.7 mph 80 % 0.00 in
06:23 35.8 °F 30.5 °F 30.17 in East 9.1 mph 12.7 mph 81 % 0.00 in
06:28 35.8 °F 30.5 °F 30.18 in NE 7.1 mph 10.4 mph 81 % 0.00 in
06:33 35.8 °F 30.5 °F 30.18 in ENE 7.8 mph 11.5 mph 81 % 0.00 in
06:38 35.9 °F 30.6 °F 30.19 in ENE 6.3 mph 10.0 mph 81 % 0.00 in
06:43 35.9 °F 30.6 °F 30.18 in ENE 5.4 mph 9.2 mph 81 % 0.00 in
06:48 35.9 °F 30.9 °F 30.18 in ENE 6.9 mph 9.2 mph 82 % 0.00 in
06:53 35.9 °F 30.9 °F 30.19 in NE 8.4 mph 12.0 mph 82 % 0.00 in
06:58 36.0 °F 31.0 °F 30.20 in ENE 7.2 mph 12.7 mph 82 % 0.00 in
07:04 36.0 °F 31.0 °F 30.20 in East 6.4 mph 9.2 mph 82 % 0.00 in
07:09 36.0 °F 31.0 °F 30.20 in ENE 6.7 mph 10.4 mph 82 % 0.00 in
07:14 35.9 °F 30.9 °F 30.20 in NE 6.6 mph 11.5 mph 82 % 0.00 in
07:19 35.9 °F 30.9 °F 30.20 in ENE 5.7 mph 11.5 mph 82 % 0.00 in
07:24 35.9 °F 31.2 °F 30.20 in NE 6.3 mph 10.4 mph 83 % 0.00 in
07:29 35.8 °F 31.1 °F 30.20 in East 6.6 mph 10.4 mph 83 % 0.00 in
07:34 35.9 °F 31.5 °F 30.20 in ENE 5.8 mph 11.5 mph 84 % 0.00 in
07:39 35.9 °F 31.2 °F 30.20 in NE 6.9 mph 10.4 mph 83 % 0.00 in
07:44 35.9 °F 31.2 °F 30.20 in East 7.7 mph 10.4 mph 83 % 0.00 in
07:49 35.9 °F 31.2 °F 30.20 in NE 6.0 mph 12.7 mph 83 % 0.00 in
07:55 35.9 °F 31.2 °F 30.20 in East 7.2 mph 11.0 mph 83 % 0.00 in
08:00 36.0 °F 31.3 °F 30.20 in ENE 7.0 mph 10.4 mph 83 % 0.00 in
08:10 36.1 °F 31.7 °F 30.20 in ENE 6.1 mph 11.5 mph 84 % 0.00 in
08:15 36.2 °F 31.8 °F 30.20 in NE 6.7 mph 10.4 mph 84 % 0.00 in
08:20 36.4 °F 32.3 °F 30.20 in ENE 4.7 mph 6.9 mph 85 % 0.00 in
08:30 36.8 °F 32.7 °F 30.19 in ENE 7.1 mph 10.4 mph 85 % 0.00 in
08:35 37.0 °F 32.9 °F 30.20 in NE 4.8 mph 8.1 mph 85 % 0.00 in
08:40 37.2 °F 33.1 °F 30.20 in ENE 4.0 mph 8.1 mph 85 % 0.00 in
08:46 37.4 °F 33.3 °F 30.20 in ENE 6.7 mph 10.4 mph 85 % 0.00 in
08:51 37.5 °F 33.1 °F 30.20 in East 8.3 mph 12.7 mph 84 % 0.00 in
08:56 37.5 °F 33.1 °F 30.20 in ENE 6.7 mph 14.0 mph 84 % 0.00 in
09:01 37.5 °F 33.1 °F 30.21 in ENE 7.5 mph 11.5 mph 84 % 0.00 in
09:06 37.6 °F 33.2 °F 30.21 in ENE 9.5 mph 12.7 mph 84 % 0.00 in
09:11 37.6 °F 32.9 °F 30.21 in NE 7.6 mph 11.5 mph 83 % 0.00 in
09:16 37.7 °F 33.0 °F 30.21 in ENE 6.6 mph 11.5 mph 83 % 0.00 in
09:21 37.8 °F 33.1 °F 30.22 in East 8.1 mph 12.7 mph 83 % 0.00 in
09:26 37.8 °F 33.1 °F 30.22 in ENE 7.6 mph 13.8 mph 83 % 0.00 in
09:31 37.9 °F 33.2 °F 30.22 in ENE 9.1 mph 12.0 mph 83 % 0.00 in
09:37 37.9 °F 33.2 °F 30.22 in ENE 9.9 mph 12.0 mph 83 % 0.00 in
09:42 38.0 °F 33.3 °F 30.22 in ENE 5.6 mph 11.5 mph 83 % 0.00 in
09:47 38.1 °F 33.4 °F 30.23 in NE 6.0 mph 10.4 mph 83 % 0.00 in
09:52 38.2 °F 33.5 °F 30.23 in ENE 7.0 mph 11.5 mph 83 % 0.00 in
09:57 38.2 °F 33.5 °F 30.23 in East 6.3 mph 10.0 mph 83 % 0.00 in
10:02 38.3 °F 33.6 °F 30.23 in East 6.9 mph 10.4 mph 83 % 0.00 in
10:07 38.4 °F 33.7 °F 30.23 in East 6.9 mph 10.4 mph 83 % 0.00 in
10:12 38.4 °F 33.7 °F 30.22 in ENE 7.9 mph 11.5 mph 83 % 0.00 in
10:17 38.6 °F 33.9 °F 30.22 in ENE 6.0 mph 9.2 mph 83 % 0.00 in
10:22 38.7 °F 34.0 °F 30.22 in ENE 8.5 mph 11.5 mph 83 % 0.00 in
10:28 38.8 °F 34.1 °F 30.23 in ENE 5.7 mph 10.4 mph 83 % 0.00 in
10:33 38.9 °F 33.9 °F 30.22 in NE 6.3 mph 10.4 mph 82 % 0.00 in
10:38 39.1 °F 34.1 °F 30.22 in ENE 5.6 mph 9.2 mph 82 % 0.00 in
10:43 39.2 °F 34.2 °F 30.22 in East 6.4 mph 8.1 mph 82 % 0.00 in
10:48 39.3 °F 34.3 °F 30.22 in East 6.5 mph 10.4 mph 82 % 0.00 in
10:53 39.4 °F 34.4 °F 30.22 in ENE 5.0 mph 8.1 mph 82 % 0.00 in
10:58 39.5 °F 34.5 °F 30.21 in ENE 5.8 mph 6.9 mph 82 % 0.00 in
11:03 39.6 °F 34.6 °F 30.21 in East 4.8 mph 6.9 mph 82 % 0.00 in
11:08 39.8 °F 34.8 °F 30.21 in ENE 5.9 mph 8.0 mph 82 % 0.00 in
11:13 39.9 °F 34.9 °F 30.20 in NE 5.3 mph 8.1 mph 82 % 0.00 in
11:19 39.9 °F 34.9 °F 30.21 in ENE 3.2 mph 6.9 mph 82 % 0.00 in
11:24 40.0 °F 34.6 °F 30.21 in ENE 5.2 mph 6.9 mph 81 % 0.00 in
11:29 40.0 °F 34.6 °F 30.21 in ENE 3.8 mph 5.8 mph 81 % 0.00 in
11:34 40.0 °F 34.6 °F 30.21 in East 5.0 mph 6.9 mph 81 % 0.00 in
11:39 40.0 °F 34.6 °F 30.21 in East 4.2 mph 5.0 mph 81 % 0.00 in
11:44 40.1 °F 35.0 °F 30.20 in ENE 3.3 mph 4.6 mph 82 % 0.00 in
11:49 40.2 °F 34.8 °F 30.20 in ENE 5.5 mph 7.0 mph 81 % 0.00 in
11:54 40.2 °F 35.1 °F 30.19 in East 5.7 mph 7.0 mph 82 % 0.00 in
11:59 40.1 °F 35.0 °F 30.19 in East 3.9 mph 6.0 mph 82 % 0.00 in
12:04 40.1 °F 35.0 °F 30.19 in ENE 2.5 mph 4.6 mph 82 % 0.00 in
12:10 40.2 °F 35.1 °F 30.19 in ENE 3.5 mph 6.0 mph 82 % 0.00 in
12:15 40.3 °F 35.2 °F 30.20 in ENE 2.4 mph 3.5 mph 82 % 0.00 in
12:20 40.4 °F 35.3 °F 30.19 in ENE 2.8 mph 5.8 mph 82 % 0.00 in
12:25 40.6 °F 35.8 °F 30.19 in ENE 2.3 mph 3.5 mph 83 % 0.00 in
12:30 40.9 °F 36.1 °F 30.19 in ENE 4.5 mph 6.9 mph 83 % 0.00 in
12:35 41.1 °F 36.0 °F 30.19 in East 3.6 mph 6.0 mph 82 % 0.00 in
12:40 41.3 °F 36.2 °F 30.19 in ENE 3.2 mph 5.0 mph 82 % 0.00 in
12:45 41.5 °F 36.1 °F 30.19 in ENE 3.7 mph 4.6 mph 81 % 0.00 in
12:50 41.7 °F 36.3 °F 30.19 in NE 3.4 mph 5.0 mph 81 % 0.00 in
12:55 41.8 °F 36.1 °F 30.19 in NE 2.8 mph 6.9 mph 80 % 0.00 in
13:01 42.1 °F 36.7 °F 30.19 in ENE 1.7 mph 3.5 mph 81 % 0.00 in
13:06 42.4 °F 37.0 °F 30.19 in NE 1.9 mph 3.5 mph 81 % 0.00 in
13:11 42.6 °F 36.9 °F 30.18 in NE 1.7 mph 3.5 mph 80 % 0.00 in
13:16 42.7 °F 36.6 °F 30.18 in East 1.9 mph 3.5 mph 79 % 0.00 in
13:21 42.7 °F 37.0 °F 30.18 in NE 2.0 mph 4.0 mph 80 % 0.00 in
13:26 42.8 °F 37.1 °F 30.18 in ENE 3.3 mph 4.6 mph 80 % 0.00 in
13:31 42.9 °F 37.5 °F 30.18 in ENE 3.0 mph 6.9 mph 81 % 0.00 in
13:36 43.1 °F 37.7 °F 30.17 in NE 5.9 mph 10.4 mph 81 % 0.00 in
13:41 43.3 °F 38.2 °F 30.17 in NE 4.5 mph 6.9 mph 82 % 0.00 in
13:46 43.5 °F 38.4 °F 30.17 in NNE 6.0 mph 8.1 mph 82 % 0.00 in
13:52 43.7 °F 38.9 °F 30.16 in ENE 6.1 mph 10.0 mph 83 % 0.00 in
13:57 43.8 °F 39.0 °F 30.16 in ENE 6.3 mph 9.2 mph 83 % 0.00 in
14:02 44.0 °F 39.2 °F 30.16 in ENE 7.3 mph 9.2 mph 83 % 0.00 in
14:07 44.1 °F 39.3 °F 30.16 in ENE 5.9 mph 9.2 mph 83 % 0.00 in
14:12 44.2 °F 39.4 °F 30.16 in ENE 6.4 mph 8.1 mph 83 % 0.00 in
14:17 44.3 °F 39.5 °F 30.16 in ENE 6.0 mph 6.9 mph 83 % 0.00 in
14:22 44.3 °F 39.5 °F 30.15 in East 9.4 mph 11.5 mph 83 % 0.00 in
14:27 44.3 °F 39.2 °F 30.15 in East 6.5 mph 9.2 mph 82 % 0.00 in
14:32 44.3 °F 39.2 °F 30.15 in East 6.8 mph 8.1 mph 82 % 0.00 in
14:37 44.4 °F 39.6 °F 30.15 in ENE 6.5 mph 8.1 mph 83 % 0.00 in
14:43 44.4 °F 39.2 °F 30.15 in ENE 6.9 mph 8.0 mph 82 % 0.00 in
14:48 44.3 °F 39.2 °F 30.14 in East 7.6 mph 11.5 mph 82 % 0.00 in
14:53 44.3 °F 38.8 °F 30.14 in ENE 8.1 mph 11.5 mph 81 % 0.00 in
14:58 44.2 °F 39.1 °F 30.14 in East 7.2 mph 11.5 mph 82 % 0.00 in
15:03 44.2 °F 38.7 °F 30.14 in ENE 9.3 mph 13.8 mph 81 % 0.00 in
15:08 44.1 °F 38.3 °F 30.14 in ENE 9.0 mph 11.5 mph 80 % 0.00 in
15:13 44.0 °F 38.5 °F 30.15 in ENE 8.1 mph 11.5 mph 81 % 0.00 in
15:18 44.0 °F 38.5 °F 30.15 in East 7.1 mph 8.1 mph 81 % 0.00 in
15:23 43.9 °F 38.4 °F 30.15 in ENE 7.9 mph 12.7 mph 81 % 0.00 in
15:28 43.8 °F 38.3 °F 30.16 in ENE 7.1 mph 9.2 mph 81 % 0.00 in
15:34 43.8 °F 38.3 °F 30.16 in East 7.1 mph 11.5 mph 81 % 0.00 in
15:39 43.7 °F 37.6 °F 30.16 in ESE 8.1 mph 10.4 mph 79 % 0.00 in
15:44 43.7 °F 37.3 °F 30.16 in SE 6.8 mph 10.4 mph 78 % 0.00 in
15:49 43.7 °F 37.0 °F 30.16 in East 3.8 mph 8.0 mph 77 % 0.00 in
15:54 43.6 °F 36.9 °F 30.16 in ESE 4.8 mph 10.4 mph 77 % 0.00 in
15:59 43.6 °F 36.9 °F 30.16 in East 3.5 mph 5.8 mph 77 % 0.00 in
16:04 43.5 °F 36.8 °F 30.16 in East 3.7 mph 7.0 mph 77 % 0.00 in
16:09 43.3 °F 36.6 °F 30.16 in East 4.5 mph 7.0 mph 77 % 0.00 in
16:14 43.3 °F 36.6 °F 30.16 in East 3.8 mph 4.6 mph 77 % 0.00 in
16:20 43.1 °F 36.4 °F 30.15 in East 5.0 mph 5.8 mph 77 % 0.00 in
16:25 42.9 °F 35.9 °F 30.16 in East 2.6 mph 6.0 mph 76 % 0.00 in
16:30 42.8 °F 35.8 °F 30.16 in East 2.3 mph 5.0 mph 76 % 0.00 in
16:35 42.6 °F 35.9 °F 30.16 in East 2.0 mph 4.6 mph 77 % 0.00 in
16:40 42.4 °F 35.7 °F 30.16 in ESE 1.3 mph 2.3 mph 77 % 0.00 in
16:45 42.3 °F 35.6 °F 30.16 in ESE 1.2 mph 3.0 mph 77 % 0.00 in
16:50 42.2 °F 35.5 °F 30.16 in ESE 1.4 mph 3.5 mph 77 % 0.00 in
16:55 42.1 °F 35.4 °F 30.17 in SE 0.6 mph 2.3 mph 77 % 0.00 in
17:00 42.0 °F 35.6 °F 30.17 in SSE 1.5 mph 3.5 mph 78 % 0.00 in
17:05 42.0 °F 35.3 °F 30.17 in ESE 1.2 mph 2.3 mph 77 % 0.00 in
17:11 41.9 °F 35.5 °F 30.17 in SE 3.8 mph 4.6 mph 78 % 0.00 in
17:16 41.8 °F 35.4 °F 30.17 in ESE 1.7 mph 3.5 mph 78 % 0.00 in
17:21 41.7 °F 35.3 °F 30.17 in ESE 0.4 mph 2.3 mph 78 % 0.00 in
17:26 41.6 °F 35.2 °F 30.16 in East 1.4 mph 3.5 mph 78 % 0.00 in
17:31 41.5 °F 35.5 °F 30.17 in ESE 3.0 mph 3.5 mph 79 % 0.00 in
17:36 41.5 °F 35.5 °F 30.17 in ESE 4.0 mph 10.4 mph 79 % 0.00 in
17:41 41.6 °F 35.6 °F 30.17 in SE 0.9 mph 3.5 mph 79 % 0.00 in
17:46 41.7 °F 35.7 °F 30.17 in SE 2.6 mph 4.6 mph 79 % 0.00 in
17:51 41.8 °F 35.8 °F 30.17 in ESE 1.6 mph 3.5 mph 79 % 0.00 in
17:56 41.9 °F 35.9 °F 30.17 in ESE 1.9 mph 4.6 mph 79 % 0.00 in
18:02 41.9 °F 35.9 °F 30.17 in East 4.4 mph 6.0 mph 79 % 0.00 in
18:07 41.9 °F 36.2 °F 30.17 in East 5.2 mph 8.1 mph 80 % 0.00 in
18:12 41.9 °F 36.2 °F 30.17 in East 3.7 mph 5.0 mph 80 % 0.00 in
18:17 41.9 °F 36.2 °F 30.17 in East 4.8 mph 7.0 mph 80 % 0.00 in
18:22 41.9 °F 36.2 °F 30.17 in East 3.4 mph 6.9 mph 80 % 0.00 in
18:27 41.9 °F 36.2 °F 30.17 in ESE 4.1 mph 5.8 mph 80 % 0.00 in
18:32 41.9 °F 36.2 °F 30.17 in East 4.8 mph 6.0 mph 80 % 0.00 in
18:37 41.9 °F 36.2 °F 30.17 in East 3.3 mph 5.8 mph 80 % 0.00 in
18:42 42.0 °F 36.3 °F 30.17 in East 4.2 mph 6.9 mph 80 % 0.00 in
18:47 42.0 °F 36.6 °F 30.17 in East 4.1 mph 6.0 mph 81 % 0.00 in
18:53 42.1 °F 36.7 °F 30.18 in ESE 1.9 mph 5.8 mph 81 % 0.00 in
18:58 42.1 °F 36.7 °F 30.18 in East 4.5 mph 5.8 mph 81 % 0.00 in
19:03 42.1 °F 36.7 °F 30.18 in East 2.4 mph 4.6 mph 81 % 0.00 in
19:08 42.2 °F 36.8 °F 30.19 in ENE 2.5 mph 4.6 mph 81 % 0.00 in
19:13 42.3 °F 37.5 °F 30.19 in ENE 5.9 mph 8.1 mph 83 % 0.00 in
19:18 42.3 °F 37.5 °F 30.20 in East 5.6 mph 7.0 mph 83 % 0.00 in
19:23 42.3 °F 37.5 °F 30.20 in East 6.5 mph 9.2 mph 83 % 0.00 in
19:28 42.3 °F 37.5 °F 30.19 in ENE 4.9 mph 7.0 mph 83 % 0.00 in
19:33 42.3 °F 37.5 °F 30.19 in ENE 5.2 mph 8.1 mph 83 % 0.00 in
19:38 42.3 °F 37.5 °F 30.19 in East 7.0 mph 11.5 mph 83 % 0.00 in
19:44 42.4 °F 37.6 °F 30.19 in ENE 5.7 mph 10.4 mph 83 % 0.00 in
19:49 42.4 °F 37.6 °F 30.19 in ENE 5.8 mph 8.1 mph 83 % 0.00 in
19:54 42.3 °F 37.5 °F 30.18 in ENE 6.6 mph 9.2 mph 83 % 0.00 in
19:59 42.3 °F 37.5 °F 30.19 in East 7.2 mph 11.5 mph 83 % 0.00 in
20:04 42.3 °F 37.5 °F 30.18 in NE 6.4 mph 11.5 mph 83 % 0.00 in
20:09 42.2 °F 37.4 °F 30.19 in NE 4.6 mph 11.5 mph 83 % 0.00 in
20:14 42.2 °F 37.4 °F 30.19 in ENE 7.6 mph 10.0 mph 83 % 0.00 in
20:19 42.1 °F 37.3 °F 30.20 in ENE 6.9 mph 10.4 mph 83 % 0.00 in
20:24 42.1 °F 37.0 °F 30.20 in ENE 5.4 mph 10.4 mph 82 % 0.00 in
20:29 42.1 °F 37.0 °F 30.20 in ENE 7.2 mph 8.1 mph 82 % 0.00 in
20:40 42.0 °F 36.9 °F 30.21 in ENE 5.6 mph 9.2 mph 82 % 0.00 in
20:45 41.9 °F 36.8 °F 30.20 in ENE 7.1 mph 10.4 mph 82 % 0.00 in
20:50 41.9 °F 36.8 °F 30.20 in ENE 7.6 mph 10.4 mph 82 % 0.00 in
20:55 41.8 °F 36.7 °F 30.20 in NE 6.1 mph 10.0 mph 82 % 0.00 in
21:00 41.8 °F 37.0 °F 30.20 in ENE 6.7 mph 12.7 mph 83 % 0.00 in
21:05 41.8 °F 36.7 °F 30.21 in ENE 4.5 mph 9.2 mph 82 % 0.00 in
21:10 41.8 °F 37.0 °F 30.21 in ENE 3.8 mph 5.8 mph 83 % 0.00 in
21:15 41.8 °F 37.0 °F 30.21 in ENE 4.3 mph 8.1 mph 83 % 0.00 in
21:20 41.8 °F 37.0 °F 30.20 in East 5.8 mph 10.4 mph 83 % 0.00 in
21:26 41.8 °F 37.0 °F 30.20 in East 5.0 mph 6.9 mph 83 % 0.00 in
21:31 41.9 °F 37.1 °F 30.20 in NE 5.5 mph 10.4 mph 83 % 0.00 in
21:36 41.9 °F 37.1 °F 30.20 in ENE 5.5 mph 8.1 mph 83 % 0.00 in
21:41 41.9 °F 37.1 °F 30.20 in ENE 7.6 mph 10.4 mph 83 % 0.00 in
21:46 41.9 °F 37.1 °F 30.19 in ENE 7.7 mph 10.4 mph 83 % 0.00 in
21:51 41.9 °F 37.1 °F 30.20 in ENE 6.4 mph 11.5 mph 83 % 0.00 in
21:56 42.0 °F 37.2 °F 30.20 in ENE 5.4 mph 7.0 mph 83 % 0.00 in
22:01 42.0 °F 37.2 °F 30.20 in ENE 5.1 mph 9.2 mph 83 % 0.00 in
22:06 42.0 °F 37.2 °F 30.19 in ENE 8.4 mph 11.5 mph 83 % 0.00 in
22:11 42.0 °F 37.2 °F 30.19 in ENE 7.1 mph 10.0 mph 83 % 0.00 in
22:17 42.0 °F 37.2 °F 30.19 in East 8.7 mph 11.5 mph 83 % 0.00 in
22:22 42.0 °F 37.2 °F 30.20 in ENE 5.8 mph 9.2 mph 83 % 0.00 in
22:32 41.9 °F 37.1 °F 30.19 in NE 7.1 mph 10.4 mph 83 % 0.00 in
22:37 41.9 °F 37.1 °F 30.19 in ENE 6.1 mph 8.1 mph 83 % 0.00 in
22:42 41.9 °F 37.4 °F 30.19 in East 8.3 mph 11.5 mph 84 % 0.00 in
22:47 41.9 °F 37.1 °F 30.19 in East 8.2 mph 11.5 mph 83 % 0.00 in
22:52 41.8 °F 37.0 °F 30.20 in NE 6.9 mph 9.2 mph 83 % 0.00 in
22:57 41.8 °F 37.0 °F 30.20 in ENE 6.9 mph 11.5 mph 83 % 0.00 in
23:02 41.7 °F 36.9 °F 30.20 in NE 6.6 mph 10.4 mph 83 % 0.00 in
23:08 41.7 °F 36.9 °F 30.20 in ENE 5.3 mph 9.2 mph 83 % 0.00 in
23:13 41.7 °F 36.9 °F 30.20 in NE 6.5 mph 9.2 mph 83 % 0.00 in
23:18 41.6 °F 36.8 °F 30.20 in ENE 7.4 mph 10.4 mph 83 % 0.00 in
23:23 41.6 °F 36.8 °F 30.19 in NE 6.8 mph 9.2 mph 83 % 0.00 in
23:28 41.5 °F 36.7 °F 30.20 in ENE 6.3 mph 8.1 mph 83 % 0.00 in
23:33 41.5 °F 36.7 °F 30.19 in ENE 4.6 mph 8.1 mph 83 % 0.00 in
23:38 41.4 °F 36.9 °F 30.19 in ENE 5.5 mph 7.0 mph 84 % 0.00 in
23:43 41.4 °F 36.9 °F 30.19 in ENE 5.7 mph 8.0 mph 84 % 0.00 in
23:48 41.4 °F 36.9 °F 30.19 in ENE 6.8 mph 10.4 mph 84 % 0.00 in
23:53 41.3 °F 36.8 °F 30.19 in East 6.7 mph 9.2 mph 84 % 0.00 in
23:59 41.3 °F 36.8 °F 30.19 in ENE 5.1 mph 7.0 mph 84 % 0.00 in
Crab Meadow Weather
Compliments of Weather Underground - 2.75 mb

Script developed by  Jim McMurry - jmcmurry@mwt.net Adapted for the template by  Wim van der Kuil - Leuven-Template.eu

Lightning: The chances of being hit by lightning is 1:28,500.